This is the latest recevied weather packets stored in our database for station/object S53BL-10. If no packets are shown the sender has not sent any weather packets the latest 10 day(s).
| Time | Temp. | Humidity | Pressure | Rain* | Wind** | Luminosity | Snow |
|---|---|---|---|---|---|---|---|
| 1777716237 | 23.89° C | 28% | 1020.8 hPa | - | - | - | - |
| 1777715336 | 24.44° C | 29% | 1021.1 hPa | - | - | - | - |
| 1777714435 | 24.44° C | 30% | 1021.3 hPa | - | - | - | - |
| 1777713535 | 25° C | 29% | 1021.6 hPa | - | - | - | - |
| 1777712634 | 22.22° C | 33% | 1021.8 hPa | - | - | - | - |
| 1777711733 | 21.11° C | 34% | 1021.8 hPa | - | - | - | - |
| 1777710832 | 20.56° C | 36% | 1021.9 hPa | - | - | - | - |
| 1777709931 | 19.44° C | 38% | 1022 hPa | - | - | - | - |
| 1777709031 | 20° C | 37% | 1022.2 hPa | - | - | - | - |
| 1777708130 | 17.22° C | 44% | 1022.4 hPa | - | - | - | - |
| 1777707229 | 16.67° C | 46% | 1022.5 hPa | - | - | - | - |
| 1777706328 | 15° C | 51% | 1022.6 hPa | - | - | - | - |
| 1777705428 | 12.78° C | 59% | 1022.8 hPa | - | - | - | - |
| 1777704527 | 11.67° C | 65% | 1022.9 hPa | - | - | - | - |
| 1777703626 | 10° C | 70% | 1023 hPa | - | - | - | - |
| 1777702725 | 8.33° C | 75% | 1023.1 hPa | - | - | - | - |
| 1777701825 | 7.78° C | 78% | 1023.1 hPa | - | - | - | - |
| 1777700924 | 7.22° C | 80% | 1023.2 hPa | - | - | - | - |
| 1777700023 | 6.67° C | 78% | 1023.2 hPa | - | - | - | - |
| 1777699122 | 6.11° C | 80% | 1023.3 hPa | - | - | - | - |
| 1777698221 | 5.56° C | 80% | 1023.3 hPa | - | - | - | - |
| 1777697321 | 5.56° C | 78% | 1023.2 hPa | - | - | - | - |
| 1777695839 | 5.56° C | 81% | 1023.2 hPa | - | - | - | - |
| 1777694938 | 5.56° C | 82% | 1023.2 hPa | - | - | - | - |
| 1777694037 | 5.56° C | 80% | 1023.1 hPa | - | - | - | - |
* Rain since midnight (hover to see other rain measurements)
** Current wind speed in m/s (hover to see current wind gust speed)